• Join FlightAware (Why Join?)
  • Login
  • US Flag 
11:48PM EST


 

Airport Tracker/Info


-or-


 

Live Flight TrackerFlight Track Log ✈ SWA2975 ✈ 26-Jun-2013 ✈ KDEN - KSLC

Flight Track Log - Related Links

Times and Time Zones

All times are in EDT time to prevent confusion due to time zone crossing. See the SWA2975 flight status page for this flight to view local times or setup timezone preferences in your user account.

Time Position Orientation Groundspeed Altitude Reporting Facility
EDT Latitude Longitude Course Direction KTS MPH feet Rate Location/Type
09:14PM 39.8290 -104.6430 186° South 197 227 5,800  Level FlightAware
09:14PM 39.8170 -104.6460 191° South 198 228 6,400 1,857 Climbing FlightAware
09:15PM 39.7880 -104.6590 199° South 229 264 7,100 1,571 Climbing FlightAware
09:15PM 39.7760 -104.6650 201° Southwest 239 275 7,500 1,714 Climbing FlightAware
09:15PM 39.7630 -104.6820 225° Southwest 251 289 7,900 1,500 Climbing FlightAware
09:15PM 39.7530 -104.7030 238° Southwest 265 305 8,300 2,286 Climbing FlightAware
09:16PM 39.7380 -104.7400 242° Southwest 265 305 9,500 2,625 Climbing FlightAware
09:16PM 39.7260 -104.7680 241° Southwest 266 306 10,400 612 Climbing FlightAware
09:19PM 39.7760 -105.0464 276° West  Level Estimated
09:19PM 39.6870 -104.8610 276° West 334 384 11,500  Level FlightAware
09:19PM 39.7830 -105.1380 294° West 385 443 16,600 6,169 Climbing FlightAware
09:20PM 39.8050 -105.2500 284° West 383 441 18,800 2,430 Climbing FlightAware
09:21PM 39.8120 -105.3150 278° West 389 448 19,800 2,197 Climbing FlightAware
09:21PM 39.8220 -105.4140 278° West 394 453 21,400 2,417 Climbing FlightAware
09:22PM 39.8300 -105.4850 278° West 390 449 22,700 2,444 Climbing FlightAware
09:22PM 39.8360 -105.5400 278° West 392 451 23,600 1,737 Climbing FlightAware
09:23PM 39.8490 -105.6630 278° West 407 468 24,900 1,500 Climbing FlightAware
09:24PM 39.8560 -105.7320 278° West 413 475 25,600 1,392 Climbing FlightAware
09:25PM 39.8820 -105.9750 278° West 433 498 27,800 1,348 Climbing FlightAware
09:26PM 39.8930 -106.0820 278° West 442 509 28,700 1,317 Climbing FlightAware
09:27PM 39.9040 -106.1910 278° West 445 512 29,600 1,481 Climbing FlightAware
09:27PM 39.9140 -106.2970 277° West 442 509 30,700 1,535 Climbing FlightAware
09:28PM 39.9260 -106.4080 278° West 441 507 31,800 1,517 Climbing FlightAware
09:29PM 39.9370 -106.5180 277° West 439 505 32,900 1,556 Climbing FlightAware
09:29PM 39.9480 -106.6280 277° West 434 499 33,900 776 Climbing FlightAware
09:30PM 39.9590 -106.7460 277° West 434 499 34,000 71 Climbing FlightAware
09:31PM 39.9690 -106.8490 277° West 434 499 34,000  Level FlightAware
09:31PM 39.9790 -106.9510 277° West 433 498 34,000  Level FlightAware
09:32PM 39.9900 -107.0680 277° West 431 496 34,000  Level FlightAware
09:33PM 39.9990 -107.1690 277° West 430 495 34,000  Level FlightAware
09:34PM 40.0110 -107.2890 277° West 430 495 34,000  Level FlightAware
09:34PM 40.0160 -107.3500 276° West 430 495 34,000  Level FlightAware
09:37PM 40.0520 -107.7530 277° West 430 495 34,000  Level FlightAware
09:37PM 40.0610 -107.8570 276° West 432 497 34,000  Level FlightAware
09:38PM 40.0690 -107.9680 275° West 433 498 34,000  Level FlightAware
09:39PM 40.0750 -108.0860 274° West 434 499 34,000  Level FlightAware
09:39PM 40.0790 -108.1890 273° West 433 498 34,000  Level FlightAware
09:40PM 40.0840 -108.2960 274° West 434 499 34,000 500 Level FlightAware
09:41PM 40.0890 -108.4090 273° West 431 496 34,700 1,172 Climbing FlightAware
09:42PM 40.0940 -108.5280 273° West 427 491 35,700 951 Climbing FlightAware
09:42PM 40.0970 -108.6150 273° West 429 494 36,000 222 Climbing FlightAware
09:43PM 40.1020 -108.7350 273° West 429 494 36,000  Level FlightAware
09:44PM 40.1070 -108.8430 273° West 428 493 36,000  Level FlightAware
09:44PM 40.1110 -108.9520 273° West 428 493 36,000  Level FlightAware
09:45PM 40.1150 -109.0550 273° West 429 494 36,000  Level FlightAware
09:46PM 40.1190 -109.1770 272° West 429 494 36,000  Level FlightAware
09:46PM 40.1220 -109.2700 272° West 429 494 36,000  Level FlightAware
09:47PM 40.1260 -109.3770 273° West 429 494 36,000  Level FlightAware
09:48PM 40.1300 -109.4960 273° West 428 493 36,000  Level FlightAware
09:48PM 40.1330 -109.5860 273° West 427 491 36,000 -615 Level FlightAware
09:49PM 40.1370 -109.6980 273° West 424 488 35,200 -1,067 Descending FlightAware
09:50PM 40.1400 -109.8210 272° West 419 482 34,400 -818 Descending FlightAware
09:51PM 40.1430 -109.9190 272° West 420 483 34,000 -293 Descending FlightAware
09:51PM 40.1460 -110.0210 272° West 420 483 34,000  Level FlightAware
09:52PM 40.1490 -110.1270 272° West 421 484 34,000  Level FlightAware
09:53PM 40.1480 -110.2430 269° West 422 486 34,000 -552 Level FlightAware
09:53PM 40.1470 -110.3390 269° West 415 478 33,200 -1,556 Descending FlightAware
09:54PM 40.1470 -110.4330 270° West 405 466 31,900 -940 Descending FlightAware
09:55PM 40.1450 -110.5220 268° West 405 466 31,900  Level FlightAware
09:55PM 40.1440 -110.5970 269° West 405 466 31,900 -3,259 Level FlightAware
09:56PM 40.1430 -110.7340 269° West 388 447 27,500 -4,227 Descending FlightAware
09:57PM 40.1420 -110.8400 269° West 385 443 25,700 -1,535 Descending FlightAware
09:58PM 40.1410 -110.9210 269° West 384 442 25,300 -264 Descending FlightAware
09:58PM 40.1400 -111.0160 269° West 384 442 25,300  Level FlightAware
09:59PM 40.1390 -111.0890 269° West 384 442 25,300  Level FlightAware
09:59PM 40.1380 -111.1340 268° West 384 442 25,300 -2,079 Level FlightAware
10:04PM 40.1900 -111.6960 277° West 324 373 15,600 -2,163 Descending FlightAware
10:04PM 40.2160 -111.7320 313° West 322 371 15,100 -828 Descending FlightAware
10:05PM 40.2330 -111.7540 315° West 316 364 14,800 -125 Descending FlightAware
10:07PM 40.3290 -111.8850 314° West 316 364 14,800 -1,318 Level FlightAware
10:08PM 40.5190 -111.9430 347° North 262 302 9,900 -2,321 Descending FlightAware
10:09PM 40.5500 -111.9470 354° North 254 292 9,500 -621 Descending FlightAware
10:09PM 40.5830 -111.9510 355° North 254 292 9,300 -273 Descending FlightAware
10:10PM 40.5940 -111.9530 352° North 254 292 9,300 -2,368 Level FlightAware
10:10PM 40.6300 -111.9560 356° North 240 276 7,800 -2,291 Descending FlightAware
10:10PM 40.6610 -111.9600 354° North 222 255 7,200 -943 Descending FlightAware
10:11PM 40.6980 -111.9640 355° North 172 198 6,700 -1,176 Descending FlightAware
10:11PM 40.7060 -111.9650 355° North 177 204 6,200 -2,233 Descending FlightAware
10:12PM 40.7320 -111.9680 355° North 174 200 5,100 -1,733 Descending FlightAware
10:12PM 40.7420 -111.9700 351° North 161 185 4,900 -1,050 Descending FlightAware
10:13PM 40.7620 -111.9720 356° North 157 181 4,400 -1,071 Descending FlightAware
10:14PM 40.7930 -111.9750 356° North 38 44 -4,632 Descending FlightAware
10:14PM 40.7970 -111.9770 339° North 35 40  Level FlightAware
10:16PM 40.7890 -111.9770 180° South 17 20  Level FlightAware
10:21PM 40.7884 -111.9778 North  Level Estimated